Time;durP1;ratioP1;P1;durP2;ratioP2;P2;SDS_P1;SDS_P2;PMS_P1;PMS_P2;Temp;Humidity;BMP_temperature;BMP_pressure;BME280_temperature;BME280_humidity;BME280_pressure;Samples;Min_cycle;Max_cycle;Signal;HPM_P1;HPM_P2
2020/12/10 00:00:38;;;;;;;123.03;30.10;;;;;;;;;;8261207;28;20415;-76
2020/12/10 00:04:42;;;;;;;69.53;20.83;;;;;;;;;;8256964;28;20084;-77
2020/12/10 00:08:44;;;;;;;81.93;19.95;;;;;;;;;;8257851;28;20489;-77
2020/12/10 00:12:47;;;;;;;50.75;18.08;;;;;;;;;;8256723;28;20487;-76
2020/12/10 00:16:50;;;;;;;68.35;18.95;;;;;;;;;;8256954;28;20468;-76
2020/12/10 00:20:53;;;;;;;96.78;27.65;;;;;;;;;;8256861;28;20369;-75
2020/12/10 00:24:56;;;;;;;73.50;22.73;;;;;;;;;;8256507;28;20406;-76
2020/12/10 00:28:59;;;;;;;51.88;15.73;;;;;;;;;;8256492;28;20041;-76
2020/12/10 00:33:02;;;;;;;63.78;18.33;;;;;;;;;;8239745;28;20384;-77
2020/12/10 00:37:06;;;;;;;44.47;17.65;;;;;;;;;;8259769;28;20472;-75
2020/12/10 00:41:09;;;;;;;66.70;15.15;;;;;;;;;;8259572;28;20418;-76
2020/12/10 00:45:12;;;;;;;184.32;39.58;;;;;;;;;;8244263;28;20381;-76
2020/12/10 00:49:20;;;;;;;128.50;33.38;;;;;;;;;;8259665;28;20468;-77
2020/12/10 00:53:23;;;;;;;91.18;29.52;;;;;;;;;;8242450;28;20418;-76
2020/12/10 00:57:26;;;;;;;102.95;28.77;;;;;;;;;;8259714;28;20486;-75
2020/12/10 01:01:43;;;;;;;134.98;37.25;;;;;;;;;;8243347;28;20126;-76
2020/12/10 01:05:46;;;;;;;111.00;27.17;;;;;;;;;;8259436;28;20360;-76
2020/12/10 01:09:49;;;;;;;76.18;21.10;;;;;;;;;;8259212;28;20463;-76
2020/12/10 01:13:52;;;;;;;65.53;16.38;;;;;;;;;;8258593;28;20482;-76
2020/12/10 01:17:56;;;;;;;58.80;17.33;;;;;;;;;;8258325;28;20403;-76
2020/12/10 01:22:03;;;;;;;141.30;36.17;;;;;;;;;;8258881;28;20456;-76
2020/12/10 01:26:11;;;;;;;76.82;26.08;;;;;;;;;;8240475;28;20472;-76
2020/12/10 01:30:14;;;;;;;108.32;23.05;;;;;;;;;;8224290;28;20386;-76
2020/12/10 01:34:18;;;;;;;84.07;28.13;;;;;;;;;;8257167;28;20078;-76
2020/12/10 01:38:40;;;;;;;68.13;20.50;;;;;;;;;;8245226;28;20467;-76
2020/12/10 01:42:43;;;;;;;65.00;20.98;;;;;;;;;;8258471;28;20387;-76
2020/12/10 01:46:46;;;;;;;77.25;19.65;;;;;;;;;;8239960;28;20353;-76
2020/12/10 01:50:49;;;;;;;51.75;15.65;;;;;;;;;;8257990;28;20373;-76
2020/12/10 01:54:52;;;;;;;45.70;17.25;;;;;;;;;;8257174;28;20361;-75
2020/12/10 01:58:55;;;;;;;81.82;18.42;;;;;;;;;;8257614;28;20471;-76
2020/12/10 02:02:58;;;;;;;38.58;16.02;;;;;;;;;;8239579;28;20375;-75
2020/12/10 02:07:02;;;;;;;41.70;13.45;;;;;;;;;;8257036;28;20052;-75
2020/12/10 02:11:13;;;;;;;51.50;14.38;;;;;;;;;;8257588;28;20456;-76
2020/12/10 02:15:17;;;;;;;41.92;15.88;;;;;;;;;;8205683;28;20049;-75
2020/12/10 02:19:20;;;;;;;32.58;14.48;;;;;;;;;;8257119;28;20057;-76
2020/12/10 02:23:23;;;;;;;50.90;17.40;;;;;;;;;;8223409;28;20044;-75
2020/12/10 02:27:25;;;;;;;44.70;18.13;;;;;;;;;;8256268;28;20380;-75
2020/12/10 02:31:32;;;;;;;54.83;14.05;;;;;;;;;;8256427;28;20464;-75
2020/12/10 02:35:37;;;;;;;47.92;13.32;;;;;;;;;;8239958;28;20384;-75
2020/12/10 02:39:40;;;;;;;51.45;13.60;;;;;;;;;;8238024;28;20053;-75
2020/12/10 02:43:43;;;;;;;49.83;13.38;;;;;;;;;;8257214;28;20495;-75
2020/12/10 02:47:46;;;;;;;56.42;14.55;;;;;;;;;;8259816;28;20063;-75
2020/12/10 02:51:49;;;;;;;99.82;26.98;;;;;;;;;;8245259;28;20471;-75
2020/12/10 02:55:52;;;;;;;152.48;42.40;;;;;;;;;;8245708;28;20637;-75
2020/12/10 02:59:55;;;;;;;96.18;27.77;;;;;;;;;;8245562;28;20491;-76
2020/12/10 03:03:57;;;;;;;115.65;37.20;;;;;;;;;;8245621;28;20475;-75
2020/12/10 03:08:01;;;;;;;72.88;26.95;;;;;;;;;;8262663;28;20380;-75
2020/12/10 03:12:04;;;;;;;38.58;12.05;;;;;;;;;;8261164;28;20476;-76
2020/12/10 03:16:06;;;;;;;45.15;13.63;;;;;;;;;;8262530;28;20057;-76
2020/12/10 03:20:09;;;;;;;70.03;23.35;;;;;;;;;;8244713;28;20356;-76
2020/12/10 03:24:12;;;;;;;49.38;18.40;;;;;;;;;;8260726;28;20139;-76
2020/12/10 03:28:16;;;;;;;52.92;20.75;;;;;;;;;;8261954;28;20486;-76
2020/12/10 03:32:19;;;;;;;31.52;11.75;;;;;;;;;;8244577;28;20388;-76
2020/12/10 03:36:22;;;;;;;88.30;20.30;;;;;;;;;;8260741;28;20049;-76
2020/12/10 03:40:25;;;;;;;63.20;23.42;;;;;;;;;;8261617;28;20499;-75
2020/12/10 03:44:28;;;;;;;62.30;19.88;;;;;;;;;;8261324;28;20448;-76
2020/12/10 03:48:31;;;;;;;49.50;11.38;;;;;;;;;;8261780;28;20075;-76
2020/12/10 03:52:34;;;;;;;34.75;11.52;;;;;;;;;;8261687;28;20049;-76
2020/12/10 03:56:38;;;;;;;53.40;13.13;;;;;;;;;;8261644;28;20468;-76
2020/12/10 04:00:41;;;;;;;46.85;11.30;;;;;;;;;;8260881;28;20468;-76
2020/12/10 04:04:46;;;;;;;52.20;18.85;;;;;;;;;;8262997;28;20349;-76
2020/12/10 04:08:49;;;;;;;51.97;11.50;;;;;;;;;;8256477;28;20111;-76
2020/12/10 04:12:54;;;;;;;56.28;12.38;;;;;;;;;;8240844;28;20456;-76
2020/12/10 04:16:57;;;;;;;45.45;12.05;;;;;;;;;;8256410;28;20484;-76
2020/12/10 04:21:00;;;;;;;30.27;12.13;;;;;;;;;;8256230;28;20379;-76
2020/12/10 04:25:03;;;;;;;53.42;18.45;;;;;;;;;;8256300;28;20057;-76
2020/12/10 04:29:06;;;;;;;59.40;19.23;;;;;;;;;;8256017;28;20490;-76
2020/12/10 04:33:09;;;;;;;47.53;13.93;;;;;;;;;;8240795;28;20482;-76
2020/12/10 04:37:12;;;;;;;52.63;14.38;;;;;;;;;;8258339;28;20361;-76
2020/12/10 04:41:27;;;;;;;57.45;13.85;;;;;;;;;;8286742;28;20474;-76
2020/12/10 04:45:31;;;;;;;41.33;12.82;;;;;;;;;;8275559;28;20455;-75
2020/12/10 04:49:41;;;;;;;40.20;10.95;;;;;;;;;;8292441;28;20475;-75
2020/12/10 04:53:44;;;;;;;24.33;10.75;;;;;;;;;;8292096;28;20052;-76
2020/12/10 04:57:48;;;;;;;135.70;38.92;;;;;;;;;;8261531;28;20422;-76
2020/12/10 05:01:51;;;;;;;86.30;23.08;;;;;;;;;;8281029;28;20487;-76
2020/12/10 05:05:54;;;;;;;51.72;19.83;;;;;;;;;;8290650;28;20479;-76
2020/12/10 05:09:57;;;;;;;44.15;16.80;;;;;;;;;;8272066;28;20367;-76
2020/12/10 05:14:00;;;;;;;28.52;13.82;;;;;;;;;;8272471;28;20561;-76
2020/12/10 05:18:10;;;;;;;25.17;12.02;;;;;;;;;;8291019;28;20413;-76
2020/12/10 05:22:13;;;;;;;27.35;11.32;;;;;;;;;;8273336;28;20485;-75
2020/12/10 05:26:18;;;;;;;32.03;11.80;;;;;;;;;;8272604;28;20368;-75
2020/12/10 05:30:21;;;;;;;48.30;14.32;;;;;;;;;;8290258;28;20467;-76
2020/12/10 05:34:25;;;;;;;35.90;13.63;;;;;;;;;;8291476;28;20471;-77
2020/12/10 05:38:31;;;;;;;57.60;13.23;;;;;;;;;;8273765;28;20052;-76
2020/12/10 05:42:38;;;;;;;44.00;13.05;;;;;;;;;;8257687;28;20472;-77
2020/12/10 05:46:41;;;;;;;56.38;15.98;;;;;;;;;;8258059;28;20475;-77
2020/12/10 05:50:44;;;;;;;41.95;11.70;;;;;;;;;;8292098;28;20439;-76
2020/12/10 05:54:56;;;;;;;75.88;13.73;;;;;;;;;;8274468;28;20383;-77
2020/12/10 05:59:01;;;;;;;35.35;10.88;;;;;;;;;;8274241;28;20111;-77
2020/12/10 06:03:04;;;;;;;70.43;11.43;;;;;;;;;;8249088;28;20556;-76
2020/12/10 06:07:11;;;;;;;35.63;10.65;;;;;;;;;;8269465;28;20103;-76
2020/12/10 06:11:20;;;;;;;38.17;15.05;;;;;;;;;;8323575;28;20482;-77
2020/12/10 06:15:25;;;;;;;45.90;16.02;;;;;;;;;;8321637;28;20367;-77
2020/12/10 06:19:33;;;;;;;46.00;12.10;;;;;;;;;;8323023;28;20479;-77
2020/12/10 06:23:38;;;;;;;27.02;11.88;;;;;;;;;;8323129;28;20394;-76
2020/12/10 06:27:41;;;;;;;29.58;12.18;;;;;;;;;;8322758;28;20074;-77
2020/12/10 06:32:03;;;;;;;34.72;12.45;;;;;;;;;;8305951;28;20524;-77
2020/12/10 06:36:25;;;;;;;24.77;10.70;;;;;;;;;;8324037;28;20356;-77
2020/12/10 06:40:30;;;;;;;28.92;11.95;;;;;;;;;;8324380;28;20475;-76
2020/12/10 06:44:37;;;;;;;32.67;11.77;;;;;;;;;;8324178;28;20458;-76
2020/12/10 06:48:43;;;;;;;24.67;10.07;;;;;;;;;;8323327;28;20459;-76
2020/12/10 06:53:23;;;;;;;24.85;10.07;;;;;;;;;;8304818;28;20390;-76
2020/12/10 06:57:52;;;;;;;33.25;11.70;;;;;;;;;;8322435;28;20052;-76
2020/12/10 07:02:12;;;;;;;28.05;10.70;;;;;;;;;;8323369;28;20455;-76
2020/12/10 07:06:22;;;;;;;33.03;13.00;;;;;;;;;;8321456;28;20363;-77
2020/12/10 07:10:46;;;;;;;24.30;10.10;;;;;;;;;;8322873;28;20351;-76
2020/12/10 07:14:50;;;;;;;31.83;11.98;;;;;;;;;;8322507;28;20052;-77
2020/12/10 07:18:53;;;;;;;36.20;12.35;;;;;;;;;;8320621;28;20056;-76
2020/12/10 07:22:56;;;;;;;33.35;13.02;;;;;;;;;;8322439;28;20461;-76
2020/12/10 07:26:59;;;;;;;38.47;14.00;;;;;;;;;;8322019;28;20459;-76
2020/12/10 07:31:02;;;;;;;49.78;19.80;;;;;;;;;;8320425;28;20060;-77
2020/12/10 07:35:07;;;;;;;36.92;14.80;;;;;;;;;;8327751;28;20359;-77
2020/12/10 07:39:10;;;;;;;39.78;16.30;;;;;;;;;;8311529;28;20481;-76
2020/12/10 07:43:12;;;;;;;33.28;13.63;;;;;;;;;;8328420;28;20414;-76
2020/12/10 07:47:16;;;;;;;44.45;14.95;;;;;;;;;;8327825;28;20413;-77
2020/12/10 07:51:20;;;;;;;41.70;17.60;;;;;;;;;;8328360;28;20478;-76
2020/12/10 07:55:28;;;;;;;39.70;14.43;;;;;;;;;;8328707;28;20397;-77
2020/12/10 07:59:32;;;;;;;;;;;;;;;;;;8310455;28;20048;-77
2020/12/10 08:04:16;;;;;;;45.97;18.13;;;;;;;;;;8309323;28;20295;-76
2020/12/10 08:08:42;;;;;;;39.25;17.23;;;;;;;;;;8308229;28;20370;-77
2020/12/10 08:13:06;;;;;;;32.33;14.13;;;;;;;;;;8324140;28;20474;-76
2020/12/10 08:17:20;;;;;;;33.67;15.40;;;;;;;;;;8288719;28;20469;-77
2020/12/10 08:21:31;;;;;;;29.02;12.50;;;;;;;;;;8302853;28;20475;-76
2020/12/10 08:25:36;;;;;;;30.77;14.00;;;;;;;;;;8325040;28;20413;-77
2020/12/10 08:29:40;;;;;;;40.10;12.75;;;;;;;;;;8295073;28;20264;-77
2020/12/10 08:33:47;;;;;;;40.00;18.90;;;;;;;;;;8258942;28;20067;-77
2020/12/10 08:37:50;;;;;;;30.63;14.57;;;;;;;;;;8241615;28;20490;-77
2020/12/10 08:41:53;;;;;;;29.45;14.13;;;;;;;;;;8218433;28;20063;-77
2020/12/10 08:45:56;;;;;;;44.10;20.10;;;;;;;;;;8256886;28;20382;-78
2020/12/10 08:50:23;;;;;;;30.05;12.80;;;;;;;;;;8257374;28;20628;-77
2020/12/10 08:54:28;;;;;;;27.33;11.82;;;;;;;;;;8240073;28;20766;-77
2020/12/10 08:58:33;;;;;;;32.03;14.05;;;;;;;;;;8256428;28;20055;-77
2020/12/10 09:02:36;;;;;;;17.42;9.23;;;;;;;;;;8246328;28;20619;-77
2020/12/10 09:06:44;;;;;;;28.38;13.77;;;;;;;;;;8276617;28;20371;-76
2020/12/10 09:10:48;;;;;;;27.77;13.65;;;;;;;;;;8294297;28;20352;-78
2020/12/10 09:14:53;;;;;;;26.50;10.57;;;;;;;;;;8292325;28;20584;-77
2020/12/10 09:18:58;;;;;;;25.60;12.38;;;;;;;;;;8278535;28;20378;-77
2020/12/10 09:23:04;;;;;;;41.10;19.90;;;;;;;;;;8208128;28;20490;-77
2020/12/10 09:27:07;;;;;;;28.63;14.38;;;;;;;;;;8241619;28;20048;-77
2020/12/10 09:31:11;;;;;;;21.50;10.88;;;;;;;;;;8259832;28;20475;-77
2020/12/10 09:35:16;;;;;;;25.08;12.57;;;;;;;;;;8259972;28;20463;-76
2020/12/10 09:39:20;;;;;;;26.88;12.13;;;;;;;;;;8260957;28;20060;-76
2020/12/10 09:43:24;;;;;;;32.55;15.00;;;;;;;;;;8223964;28;20414;-77
2020/12/10 09:47:29;;;;;;;25.52;12.02;;;;;;;;;;8290544;28;20394;-76
2020/12/10 09:51:42;;;;;;;29.83;14.18;;;;;;;;;;8241871;28;20628;-77
2020/12/10 10:00:09;;;;;;;24.73;10.60;;;;;;;;;;8253296;28;20455;-77
2020/12/10 10:04:16;;;;;;;71.97;24.10;;;;;;;;;;8262241;28;20406;-77
2020/12/10 10:08:23;;;;;;;28.23;12.15;;;;;;;;;;8294131;28;20383;-77
2020/12/10 10:12:27;;;;;;;65.35;23.10;;;;;;;;;;8296003;28;20474;-76
2020/12/10 10:16:32;;;;;;;19.85;9.85;;;;;;;;;;8128372;28;58161;-76
2020/12/10 10:20:37;;;;;;;56.10;20.33;;;;;;;;;;8275146;28;20463;-76
2020/12/10 10:24:40;;;;;;;25.25;12.00;;;;;;;;;;8293155;28;20455;-77
2020/12/10 10:28:45;;;;;;;24.20;8.68;;;;;;;;;;8237280;28;20570;-77
2020/12/10 10:32:48;;;;;;;26.88;11.32;;;;;;;;;;8293429;28;20062;-77
2020/12/10 10:36:51;;;;;;;24.20;10.27;;;;;;;;;;8206012;28;20512;-77
2020/12/10 10:40:58;;;;;;;29.30;12.18;;;;;;;;;;8126108;28;20568;-77
2020/12/10 10:45:01;;;;;;;42.05;14.23;;;;;;;;;;8140832;28;20045;-77
2020/12/10 10:49:06;;;;;;;77.15;23.90;;;;;;;;;;8072741;28;20064;-77
2020/12/10 10:53:09;;;;;;;37.75;16.23;;;;;;;;;;8173198;28;20439;-77
2020/12/10 10:57:13;;;;;;;101.03;30.42;;;;;;;;;;8208182;28;20133;-77
2020/12/10 11:01:17;;;;;;;79.18;25.52;;;;;;;;;;8139432;28;20498;-77
2020/12/10 11:05:21;;;;;;;207.23;57.13;;;;;;;;;;8222791;28;20471;-78
2020/12/10 11:09:27;;;;;;;282.55;73.15;;;;;;;;;;8296656;28;20048;-77
2020/12/10 11:13:31;;;;;;;41.20;20.90;;;;;;;;;;8298250;28;20430;-77
2020/12/10 11:17:38;;;;;;;54.55;21.13;;;;;;;;;;8280786;28;20471;-77
2020/12/10 11:21:42;;;;;;;45.67;16.98;;;;;;;;;;8298774;28;20633;-77
2020/12/10 11:25:45;;;;;;;54.63;19.33;;;;;;;;;;8298853;28;20476;-77
2020/12/10 11:29:52;;;;;;;192.55;67.65;;;;;;;;;;8298729;28;20532;-77
2020/12/10 11:33:55;;;;;;;26.02;13.32;;;;;;;;;;8279740;28;20040;-76
2020/12/10 11:38:00;;;;;;;33.35;13.95;;;;;;;;;;8298096;28;20071;-77
2020/12/10 11:42:05;;;;;;;92.00;33.10;;;;;;;;;;8279204;28;20645;-76
2020/12/10 11:46:10;;;;;;;41.97;17.67;;;;;;;;;;8296207;28;20070;-76
2020/12/10 11:50:19;;;;;;;21.67;9.80;;;;;;;;;;8279362;28;20654;-76
2020/12/10 11:54:21;;;;;;;33.15;15.65;;;;;;;;;;8213247;28;20090;-75
2020/12/10 11:58:25;;;;;;;55.47;17.08;;;;;;;;;;8552641;22;20414;-74
2020/12/10 12:02:30;;;;;;;22.67;11.05;;;;;;;;;;8165565;28;20460;-74
2020/12/10 12:06:34;;;;;;;22.38;10.88;;;;;;;;;;8156848;28;20479;-73
2020/12/10 12:10:38;;;;;;;26.08;12.15;;;;;;;;;;8134848;28;20648;-73
2020/12/10 12:14:41;;;;;;;31.13;14.93;;;;;;;;;;8164743;28;20049;-73
2020/12/10 12:18:44;;;;;;;33.00;15.05;;;;;;;;;;8130805;28;20360;-74
2020/12/10 12:22:47;;;;;;;63.50;21.80;;;;;;;;;;8165796;28;20480;-73
2020/12/10 12:26:50;;;;;;;29.02;14.10;;;;;;;;;;8185161;28;20053;-74
2020/12/10 12:30:54;;;;;;;187.73;50.38;;;;;;;;;;8200004;28;20045;-74
2020/12/10 12:34:59;;;;;;;38.92;16.80;;;;;;;;;;8178821;28;20643;-73
2020/12/10 12:39:05;;;;;;;44.58;19.00;;;;;;;;;;8197253;28;20228;-74
2020/12/10 12:43:25;;;;;;;92.43;44.55;;;;;;;;;;8183190;28;20475;-73
2020/12/10 12:47:28;;;;;;;34.45;13.27;;;;;;;;;;8197232;28;20479;-74
2020/12/10 12:51:34;;;;;;;21.98;9.98;;;;;;;;;;8162783;28;20410;-73
2020/12/10 12:55:37;;;;;;;30.90;13.38;;;;;;;;;;8196605;28;20374;-72
2020/12/10 12:59:40;;;;;;;26.60;12.48;;;;;;;;;;8127069;28;20350;-72
2020/12/10 13:03:45;;;;;;;33.72;15.23;;;;;;;;;;8127822;28;20416;-73
2020/12/10 13:07:52;;;;;;;26.73;13.52;;;;;;;;;;8128045;28;20429;-72
2020/12/10 13:11:58;;;;;;;23.42;11.43;;;;;;;;;;8127629;28;20541;-75
2020/12/10 13:16:14;;;;;;;30.60;14.55;;;;;;;;;;8126695;28;20553;-74
2020/12/10 13:20:20;;;;;;;21.05;10.43;;;;;;;;;;8126788;28;20054;-73
2020/12/10 13:24:24;;;;;;;22.23;10.40;;;;;;;;;;8078443;28;20622;-72
2020/12/10 13:28:29;;;;;;;51.65;18.63;;;;;;;;;;8133689;28;20540;-73
2020/12/10 13:32:32;;;;;;;137.73;38.85;;;;;;;;;;8194540;28;20513;-75
2020/12/10 13:36:36;;;;;;;307.27;92.18;;;;;;;;;;8178403;28;20506;-73
2020/12/10 13:40:39;;;;;;;87.93;35.33;;;;;;;;;;8162688;28;20507;-73
2020/12/10 13:44:46;;;;;;;94.93;34.50;;;;;;;;;;8195335;28;20084;-74
2020/12/10 13:48:49;;;;;;;169.95;53.85;;;;;;;;;;8195738;28;20065;-74
2020/12/10 13:52:52;;;;;;;84.15;25.90;;;;;;;;;;8161597;28;20395;-74
2020/12/10 13:56:56;;;;;;;130.15;35.70;;;;;;;;;;8193813;28;20475;-74
2020/12/10 14:01:01;;;;;;;58.20;22.60;;;;;;;;;;8177797;28;20054;-74
2020/12/10 14:05:04;;;;;;;82.18;28.17;;;;;;;;;;8195623;28;20064;-74
2020/12/10 14:09:17;;;;;;;159.15;45.40;;;;;;;;;;8162681;28;20460;-74
2020/12/10 14:13:19;;;;;;;46.90;18.45;;;;;;;;;;8194830;28;20479;-73
2020/12/10 14:17:22;;;;;;;210.90;41.10;;;;;;;;;;8194312;28;21455;-73
2020/12/10 14:21:26;;;;;;;45.35;18.55;;;;;;;;;;8154704;28;20082;-72
2020/12/10 14:25:48;;;;;;;61.90;22.10;;;;;;;;;;8132031;28;20412;-74
2020/12/10 14:29:51;;;;;;;286.23;53.13;;;;;;;;;;8158443;28;20505;-74
2020/12/10 14:33:54;;;;;;;151.18;35.95;;;;;;;;;;8137184;28;20381;-73
2020/12/10 14:37:57;;;;;;;74.82;33.38;;;;;;;;;;8135001;28;20499;-73
2020/12/10 14:42:01;;;;;;;44.10;19.08;;;;;;;;;;8153965;28;20507;-73
2020/12/10 14:46:05;;;;;;;54.75;23.83;;;;;;;;;;8137092;28;20406;-73
2020/12/10 14:50:09;;;;;;;39.70;20.33;;;;;;;;;;8151232;28;20667;-73
2020/12/10 14:54:13;;;;;;;54.97;19.33;;;;;;;;;;8147443;28;20072;-73
2020/12/10 14:58:16;;;;;;;278.63;60.63;;;;;;;;;;8157813;28;20488;-73
2020/12/10 15:02:19;;;;;;;49.38;19.20;;;;;;;;;;8149721;28;20616;-73
2020/12/10 15:06:22;;;;;;;49.80;22.10;;;;;;;;;;8139796;28;20523;-73
2020/12/10 15:10:29;;;;;;;39.63;18.33;;;;;;;;;;8149972;28;20058;-73
2020/12/10 15:14:32;;;;;;;46.70;21.83;;;;;;;;;;8129212;28;20076;-73
2020/12/10 15:18:46;;;;;;;37.05;16.92;;;;;;;;;;8138242;28;20058;-73
2020/12/10 15:22:51;;;;;;;35.33;17.27;;;;;;;;;;8145544;28;20476;-73
2020/12/10 15:26:55;;;;;;;223.68;82.85;;;;;;;;;;8113733;28;20735;-73
2020/12/10 15:30:58;;;;;;;178.65;70.10;;;;;;;;;;8151989;28;20365;-73
2020/12/10 15:35:02;;;;;;;70.63;31.40;;;;;;;;;;8147192;28;20362;-73
2020/12/10 15:39:05;;;;;;;88.45;33.05;;;;;;;;;;8050514;28;20385;-73
2020/12/10 15:43:08;;;;;;;171.20;55.58;;;;;;;;;;8115103;28;20415;-73
2020/12/10 15:47:11;;;;;;;132.18;41.30;;;;;;;;;;8156717;28;20375;-73
2020/12/10 15:51:15;;;;;;;75.10;25.38;;;;;;;;;;8123280;28;20415;-72
2020/12/10 15:55:18;;;;;;;47.03;20.92;;;;;;;;;;8116631;28;20553;-72
2020/12/10 15:59:21;;;;;;;49.30;21.77;;;;;;;;;;8123543;28;20050;-72
2020/12/10 16:03:27;;;;;;;47.85;18.13;;;;;;;;;;8162703;28;20511;-72
2020/12/10 16:07:30;;;;;;;34.28;15.02;;;;;;;;;;8122456;28;20507;-72
2020/12/10 16:11:39;;;;;;;37.88;16.70;;;;;;;;;;8107888;28;20563;-72
2020/12/10 16:15:42;;;;;;;41.28;17.67;;;;;;;;;;8143303;28;20480;-72
2020/12/10 16:19:45;;;;;;;65.78;25.90;;;;;;;;;;8164536;28;20073;-72
2020/12/10 16:23:51;;;;;;;90.93;36.13;;;;;;;;;;8163166;28;20703;-73
2020/12/10 16:27:54;;;;;;;49.53;21.48;;;;;;;;;;8130793;28;20407;-72
2020/12/10 16:31:57;;;;;;;96.60;45.20;;;;;;;;;;8131799;28;20384;-72
2020/12/10 16:36:00;;;;;;;40.08;18.70;;;;;;;;;;8163737;28;20049;-72
2020/12/10 16:40:03;;;;;;;46.13;23.38;;;;;;;;;;8098605;28;20483;-73
2020/12/10 16:44:08;;;;;;;50.47;21.63;;;;;;;;;;8164330;28;20049;-73
2020/12/10 16:48:11;;;;;;;65.07;29.75;;;;;;;;;;8148221;28;20480;-74
2020/12/10 16:52:14;;;;;;;70.72;30.45;;;;;;;;;;8131584;28;20372;-73
2020/12/10 16:56:18;;;;;;;73.57;29.60;;;;;;;;;;8164478;28;20662;-73
2020/12/10 17:00:40;;;;;;;135.90;53.75;;;;;;;;;;8147267;28;20485;-73
2020/12/10 17:04:43;;;;;;;94.53;37.25;;;;;;;;;;8163429;28;20573;-73
2020/12/10 17:08:47;;;;;;;49.63;20.58;;;;;;;;;;8113470;28;20652;-73
2020/12/10 17:12:56;;;;;;;65.47;30.48;;;;;;;;;;8158634;28;20057;-74
2020/12/10 17:16:59;;;;;;;263.35;97.88;;;;;;;;;;8056426;28;20046;-73
2020/12/10 17:21:02;;;;;;;880.30;301.95;;;;;;;;;;8094890;28;20645;-73
2020/12/10 17:25:06;;;;;;;455.40;136.80;;;;;;;;;;8142193;28;20411;-73
2020/12/10 17:29:09;;;;;;;880.42;249.75;;;;;;;;;;8142193;28;20488;-73
2020/12/10 17:33:14;;;;;;;109.78;37.40;;;;;;;;;;8092498;28;20431;-74
2020/12/10 17:37:18;;;;;;;787.50;183.25;;;;;;;;;;8126249;28;20486;-72
2020/12/10 17:41:21;;;;;;;509.60;107.78;;;;;;;;;;8140543;28;20492;-72
2020/12/10 17:45:25;;;;;;;320.67;67.72;;;;;;;;;;8109815;28;20516;-72
2020/12/10 17:49:28;;;;;;;215.82;56.38;;;;;;;;;;8126243;28;20506;-72
2020/12/10 17:53:31;;;;;;;189.52;65.00;;;;;;;;;;8125677;28;20388;-72
2020/12/10 17:57:34;;;;;;;202.90;85.53;;;;;;;;;;8106310;28;20499;-72
2020/12/10 18:01:45;;;;;;;151.50;61.20;;;;;;;;;;8112696;28;20109;-72
2020/12/10 18:05:49;;;;;;;187.35;61.25;;;;;;;;;;8144270;28;20537;-72
2020/12/10 18:09:53;;;;;;;128.82;44.25;;;;;;;;;;8064098;29;20054;-72
2020/12/10 18:13:57;;;;;;;104.75;42.83;;;;;;;;;;8061345;29;20644;-72
2020/12/10 18:18:02;;;;;;;91.80;35.40;;;;;;;;;;8062842;28;20523;-73
2020/12/10 18:22:04;;;;;;;99.80;41.08;;;;;;;;;;8000080;29;20430;-73
2020/12/10 18:26:08;;;;;;;108.07;43.30;;;;;;;;;;7984902;29;20380;-73
2020/12/10 18:30:11;;;;;;;114.80;45.67;;;;;;;;;;7999907;29;20454;-72
2020/12/10 18:34:14;;;;;;;102.05;40.38;;;;;;;;;;7951277;29;20519;-73
2020/12/10 18:38:18;;;;;;;145.75;57.70;;;;;;;;;;8015172;29;20497;-73
2020/12/10 18:42:22;;;;;;;143.02;62.88;;;;;;;;;;7999179;29;20541;-73
2020/12/10 18:46:27;;;;;;;93.03;41.88;;;;;;;;;;7866837;29;20467;-72
2020/12/10 18:51:02;;;;;;;162.80;63.85;;;;;;;;;;8001664;29;20481;-72
2020/12/10 18:55:10;;;;;;;128.88;50.67;;;;;;;;;;8063331;29;20359;-73
2020/12/10 18:59:14;;;;;;;111.05;43.50;;;;;;;;;;8068858;28;20538;-73
2020/12/10 19:03:17;;;;;;;101.20;40.65;;;;;;;;;;8159900;28;20490;-73
2020/12/10 19:07:20;;;;;;;113.78;43.22;;;;;;;;;;8111066;28;20046;-73
2020/12/10 19:11:27;;;;;;;180.45;64.53;;;;;;;;;;8161595;28;20521;-73
2020/12/10 19:15:30;;;;;;;100.30;35.00;;;;;;;;;;8128255;28;20468;-73
2020/12/10 19:19:34;;;;;;;98.38;34.78;;;;;;;;;;8174596;28;20502;-74
2020/12/10 19:23:37;;;;;;;80.55;31.98;;;;;;;;;;8159888;28;20369;-74
2020/12/10 19:27:43;;;;;;;78.93;30.70;;;;;;;;;;8186604;28;20658;-74
2020/12/10 19:31:49;;;;;;;75.67;28.90;;;;;;;;;;8142671;28;20573;-74
2020/12/10 19:35:56;;;;;;;55.47;23.13;;;;;;;;;;8167739;28;20478;-72
2020/12/10 19:39:59;;;;;;;60.50;22.08;;;;;;;;;;8148809;28;20105;-73
2020/12/10 19:44:07;;;;;;;54.83;22.63;;;;;;;;;;8166963;28;20058;-73
2020/12/10 19:48:12;;;;;;;53.83;20.95;;;;;;;;;;8166092;28;20046;-74
2020/12/10 19:52:16;;;;;;;50.10;19.25;;;;;;;;;;8149728;28;20456;-73
2020/12/10 19:56:21;;;;;;;47.45;20.13;;;;;;;;;;8166524;28;20529;-73
2020/12/10 20:00:25;;;;;;;61.33;26.15;;;;;;;;;;8116383;28;20541;-73
2020/12/10 20:04:30;;;;;;;65.47;26.73;;;;;;;;;;8148115;28;20472;-73
2020/12/10 20:08:34;;;;;;;53.13;20.13;;;;;;;;;;8165820;28;20488;-73
2020/12/10 20:12:40;;;;;;;49.78;20.70;;;;;;;;;;8165915;28;20652;-73
2020/12/10 20:16:43;;;;;;;63.97;25.30;;;;;;;;;;8097652;28;20047;-73
2020/12/10 20:20:47;;;;;;;57.03;23.35;;;;;;;;;;8049984;28;20059;-73
2020/12/10 20:24:52;;;;;;;57.58;23.90;;;;;;;;;;8065215;28;20571;-73
2020/12/10 20:29:01;;;;;;;57.40;23.45;;;;;;;;;;8096804;28;20374;-73
2020/12/10 20:33:04;;;;;;;74.35;29.02;;;;;;;;;;8081236;28;20716;-73
2020/12/10 20:37:10;;;;;;;57.13;21.17;;;;;;;;;;8096857;28;20516;-74
2020/12/10 20:41:13;;;;;;;89.95;28.70;;;;;;;;;;8064366;28;20418;-73
2020/12/10 20:45:16;;;;;;;215.65;51.72;;;;;;;;;;8099642;28;20511;-73
2020/12/10 20:49:19;;;;;;;240.57;55.28;;;;;;;;;;8130482;28;20420;-73
2020/12/10 20:53:22;;;;;;;104.38;35.30;;;;;;;;;;8148191;28;20476;-73
2020/12/10 20:57:25;;;;;;;56.25;24.17;;;;;;;;;;8147821;28;20384;-73
2020/12/10 21:01:35;;;;;;;74.80;29.30;;;;;;;;;;8164775;28;20077;-72
2020/12/10 21:05:38;;;;;;;89.80;35.55;;;;;;;;;;8097419;28;20080;-73
2020/12/10 21:09:41;;;;;;;157.80;49.28;;;;;;;;;;8163316;28;20045;-73
2020/12/10 21:13:44;;;;;;;294.85;74.35;;;;;;;;;;8147116;28;20349;-73
2020/12/10 21:17:47;;;;;;;245.40;59.17;;;;;;;;;;8133429;28;20058;-72
2020/12/10 21:21:51;;;;;;;82.22;31.85;;;;;;;;;;8164784;28;20486;-73
2020/12/10 21:25:54;;;;;;;253.40;63.33;;;;;;;;;;8129277;28;20423;-73
2020/12/10 21:29:58;;;;;;;320.05;79.07;;;;;;;;;;8163191;28;20506;-72
2020/12/10 21:34:01;;;;;;;208.02;56.88;;;;;;;;;;8113464;28;20547;-73
2020/12/10 21:38:08;;;;;;;86.85;31.88;;;;;;;;;;8163443;28;20677;-73
2020/12/10 21:42:12;;;;;;;198.90;53.47;;;;;;;;;;8164157;28;20366;-73
2020/12/10 21:46:15;;;;;;;80.20;32.33;;;;;;;;;;8163228;28;20054;-73
2020/12/10 21:50:21;;;;;;;114.78;41.13;;;;;;;;;;8145393;28;20456;-73
2020/12/10 21:54:26;;;;;;;262.35;66.00;;;;;;;;;;8146638;28;20456;-72
2020/12/10 21:58:29;;;;;;;385.88;103.43;;;;;;;;;;8162918;28;20519;-73
2020/12/10 22:02:32;;;;;;;327.00;88.03;;;;;;;;;;8163643;28;20384;-73
2020/12/10 22:06:35;;;;;;;265.23;75.85;;;;;;;;;;8146165;28;20709;-73
2020/12/10 22:10:42;;;;;;;228.93;64.13;;;;;;;;;;8145998;28;20480;-73
2020/12/10 22:14:46;;;;;;;463.55;120.75;;;;;;;;;;8145801;28;20541;-73
2020/12/10 22:18:49;;;;;;;174.07;61.35;;;;;;;;;;8162876;28;20534;-73
2020/12/10 22:22:55;;;;;;;138.57;48.33;;;;;;;;;;8163313;28;20584;-73
2020/12/10 22:26:59;;;;;;;122.40;41.20;;;;;;;;;;8128391;28;20251;-72
2020/12/10 22:31:06;;;;;;;125.95;40.85;;;;;;;;;;8145345;28;20046;-73
2020/12/10 22:35:09;;;;;;;117.28;41.35;;;;;;;;;;8162974;28;20480;-74
2020/12/10 22:39:13;;;;;;;133.55;46.22;;;;;;;;;;8162974;28;20657;-73
2020/12/10 22:43:16;;;;;;;165.65;52.22;;;;;;;;;;8162991;28;20687;-73
2020/12/10 22:47:20;;;;;;;142.07;46.40;;;;;;;;;;8144708;28;20530;-73
2020/12/10 22:51:23;;;;;;;131.15;42.47;;;;;;;;;;8159879;28;20399;-73
2020/12/10 22:55:26;;;;;;;124.13;41.78;;;;;;;;;;8162017;28;20565;-72
2020/12/10 22:59:29;;;;;;;150.65;46.72;;;;;;;;;;8144990;28;20380;-73
2020/12/10 23:03:34;;;;;;;143.18;44.75;;;;;;;;;;8145953;28;20676;-73
2020/12/10 23:07:37;;;;;;;158.02;47.40;;;;;;;;;;8152307;28;20456;-72
2020/12/10 23:11:39;;;;;;;138.52;45.40;;;;;;;;;;8169051;28;20464;-72
2020/12/10 23:15:42;;;;;;;149.02;47.50;;;;;;;;;;8168763;28;20476;-72
2020/12/10 23:19:45;;;;;;;166.63;51.17;;;;;;;;;;8167449;28;20411;-72
2020/12/10 23:23:48;;;;;;;180.32;55.35;;;;;;;;;;8117482;28;20414;-73
2020/12/10 23:27:51;;;;;;;178.43;54.97;;;;;;;;;;8150161;28;20457;-73
2020/12/10 23:32:01;;;;;;;169.73;55.53;;;;;;;;;;8166552;28;20050;-74
2020/12/10 23:36:04;;;;;;;181.63;55.50;;;;;;;;;;8149130;28;20354;-74
2020/12/10 23:40:08;;;;;;;152.43;49.15;;;;;;;;;;8167862;28;20649;-74
2020/12/10 23:44:11;;;;;;;138.23;46.25;;;;;;;;;;8150644;28;20496;-74